createdAt,value
2019-03-15T00:00:45.213Z,8.50
2019-03-15T00:03:14.614Z,8.50
2019-03-15T00:05:44.042Z,8.40
2019-03-15T00:08:13.346Z,8.40
2019-03-15T00:10:42.852Z,8.50
2019-03-15T00:13:12.475Z,8.50
2019-03-15T00:15:44.084Z,8.50
2019-03-15T00:18:13.566Z,8.50
2019-03-15T00:20:45.364Z,8.60
2019-03-15T00:23:15.775Z,8.60
2019-03-15T00:25:45.091Z,8.60
2019-03-15T00:28:14.469Z,8.70
2019-03-15T00:30:45.927Z,8.70
2019-03-15T00:33:15.213Z,8.80
2019-03-15T00:35:44.866Z,8.80
2019-03-15T00:38:18.365Z,8.70
2019-03-15T00:40:47.911Z,8.60
2019-03-15T00:43:17.307Z,8.50
2019-03-15T00:45:46.751Z,8.40
2019-03-15T00:48:16.159Z,8.40
2019-03-15T00:50:47.861Z,8.40
2019-03-15T00:53:17.299Z,8.40
2019-03-15T00:55:46.785Z,8.40
2019-03-15T00:58:16.172Z,8.40
2019-03-15T01:00:45.559Z,8.40
2019-03-15T01:03:15.687Z,8.40
2019-03-15T01:05:45.205Z,8.50
2019-03-15T01:08:25.179Z,8.50
2019-03-15T01:10:54.512Z,8.50
2019-03-15T01:13:26.181Z,8.50
2019-03-15T01:15:57.015Z,8.50
2019-03-15T01:18:26.807Z,8.50
2019-03-15T01:20:56.508Z,8.50
2019-03-15T01:23:25.971Z,8.50
2019-03-15T01:26:15.279Z,8.60
2019-03-15T01:28:44.580Z,8.50
2019-03-15T01:31:37.804Z,8.60
2019-03-15T01:34:07.097Z,8.60
2019-03-15T01:36:36.508Z,8.60
2019-03-15T01:39:06.938Z,8.60
2019-03-15T01:41:36.224Z,8.60
2019-03-15T01:44:05.589Z,8.70
2019-03-15T01:46:35.250Z,8.70
2019-03-15T01:49:09.545Z,8.70
2019-03-15T01:51:38.948Z,8.70
2019-03-15T01:54:08.352Z,8.70
2019-03-15T01:56:39.202Z,8.70
2019-03-15T01:59:08.479Z,8.80
2019-03-15T02:02:31.166Z,8.70
2019-03-15T02:05:00.526Z,8.80
2019-03-15T02:07:29.927Z,8.80
2019-03-15T02:09:59.288Z,8.70
2019-03-15T02:12:28.647Z,8.70
2019-03-15T02:14:57.905Z,8.80
2019-03-15T02:17:27.319Z,8.80
2019-03-15T02:19:56.639Z,8.80
2019-03-15T02:22:25.943Z,8.80
2019-03-15T02:24:55.251Z,8.90
2019-03-15T02:27:24.583Z,8.80
2019-03-15T02:29:53.997Z,8.90
2019-03-15T02:32:23.387Z,8.90
2019-03-15T02:34:53.745Z,8.80
2019-03-15T02:37:23.336Z,8.80
2019-03-15T02:39:52.710Z,8.80
2019-03-15T02:42:22.079Z,8.80
2019-03-15T02:44:51.477Z,8.80
2019-03-15T02:47:21.024Z,8.90
2019-03-15T02:49:50.381Z,8.90
2019-03-15T02:52:19.844Z,8.90
2019-03-15T02:54:49.189Z,8.90
2019-03-15T02:57:18.429Z,9.00
2019-03-15T02:59:47.789Z,8.90
2019-03-15T03:02:17.100Z,9.00
2019-03-15T03:04:46.468Z,9.00
2019-03-15T03:07:15.873Z,9.00
2019-03-15T03:09:45.306Z,9.00
2019-03-15T03:12:14.626Z,9.00
2019-03-15T03:14:43.996Z,9.00
2019-03-15T03:17:13.825Z,9.00
2019-03-15T03:19:43.404Z,9.00
2019-03-15T03:22:12.722Z,9.00
2019-03-15T03:24:42.118Z,8.90
2019-03-15T03:27:11.478Z,8.90
2019-03-15T03:29:40.812Z,8.90
2019-03-15T03:32:10.409Z,8.90
2019-03-15T03:34:40.789Z,8.90
2019-03-15T03:37:12.632Z,8.90
2019-03-15T03:39:42.062Z,9.00
2019-03-15T03:42:11.551Z,8.90
2019-03-15T03:44:40.887Z,9.00
2019-03-15T03:47:10.316Z,8.90
2019-03-15T03:49:39.617Z,9.00
2019-03-15T03:52:08.994Z,8.90
2019-03-15T03:54:38.346Z,9.00
2019-03-15T03:57:07.683Z,9.00
2019-03-15T03:59:37.053Z,9.00
2019-03-15T04:02:06.475Z,9.00
2019-03-15T04:04:43.595Z,9.00
2019-03-15T04:07:13.127Z,9.00
2019-03-15T04:09:44.859Z,9.00
2019-03-15T04:12:14.314Z,9.00
2019-03-15T04:14:44.021Z,9.10
2019-03-15T04:17:16.039Z,9.10
2019-03-15T04:19:45.456Z,9.10
2019-03-15T04:22:14.839Z,9.10
2019-03-15T04:24:44.315Z,9.10
2019-03-15T04:27:13.781Z,9.10
2019-03-15T04:29:43.233Z,9.10
2019-03-15T04:32:12.600Z,9.10
2019-03-15T04:34:41.988Z,9.10
2019-03-15T04:37:11.341Z,9.10
2019-03-15T04:39:40.713Z,9.10
2019-03-15T04:42:10.109Z,9.00
2019-03-15T04:44:39.388Z,9.00
2019-03-15T04:47:08.746Z,9.00
2019-03-15T04:49:38.191Z,9.00
2019-03-15T04:52:07.554Z,9.00
2019-03-15T04:54:37.025Z,8.90
2019-03-15T04:57:07.430Z,8.90
2019-03-15T04:59:36.758Z,8.90
2019-03-15T05:02:06.310Z,8.90
2019-03-15T05:04:35.674Z,8.90
2019-03-15T05:07:05.005Z,8.90
2019-03-15T05:09:34.390Z,8.90
2019-03-15T05:12:03.894Z,8.90
2019-03-15T05:14:33.434Z,8.90
2019-03-15T05:17:03.881Z,8.90
2019-03-15T05:19:33.304Z,8.90
2019-03-15T05:22:02.610Z,8.90
2019-03-15T05:24:34.368Z,9.00
2019-03-15T05:27:03.753Z,9.00
2019-03-15T05:29:33.088Z,9.10
2019-03-15T05:32:02.476Z,9.10
2019-03-15T05:34:31.897Z,9.20
2019-03-15T05:37:01.274Z,9.20
2019-03-15T05:39:30.687Z,9.30
2019-03-15T05:41:59.988Z,9.30
2019-03-15T05:44:29.346Z,9.30
2019-03-15T05:46:59.035Z,9.30
2019-03-15T05:49:28.539Z,9.30
2019-03-15T05:51:57.920Z,9.30
2019-03-15T05:54:27.366Z,9.30
2019-03-15T05:56:56.675Z,9.30
2019-03-15T05:59:26.118Z,9.30
2019-03-15T06:01:55.499Z,9.20
2019-03-15T06:04:25.112Z,9.20
2019-03-15T06:06:54.537Z,9.20
2019-03-15T06:09:24.007Z,9.30
2019-03-15T06:11:53.402Z,9.30
2019-03-15T06:14:22.789Z,9.30
2019-03-15T06:16:52.019Z,9.30
2019-03-15T06:19:21.458Z,9.20
2019-03-15T06:21:50.819Z,9.20
2019-03-15T06:24:22.172Z,9.20
2019-03-15T06:26:51.445Z,9.20
2019-03-15T06:29:20.859Z,9.30
2019-03-15T06:31:50.361Z,9.30
2019-03-15T06:34:19.781Z,9.40
2019-03-15T06:36:50.852Z,9.40
2019-03-15T06:39:20.272Z,9.50
2019-03-15T06:41:49.615Z,9.50
2019-03-15T06:44:18.893Z,9.50
2019-03-15T06:47:07.259Z,9.60
2019-03-15T06:49:36.564Z,9.60
2019-03-15T06:52:06.032Z,9.60
2019-03-15T06:54:35.375Z,9.70
2019-03-15T06:57:04.679Z,9.70
2019-03-15T06:59:33.988Z,9.70
2019-03-15T07:02:11.443Z,9.70
2019-03-15T07:04:40.788Z,9.80
2019-03-15T07:07:15.291Z,9.80
2019-03-15T07:09:44.706Z,9.90
2019-03-15T07:12:26.605Z,10.00
2019-03-15T07:15:14.427Z,10.00
2019-03-15T07:17:43.809Z,10.10
2019-03-15T07:20:13.274Z,10.20
2019-03-15T07:22:42.572Z,10.30
2019-03-15T07:25:12.005Z,10.30
2019-03-15T07:27:42.800Z,10.40
2019-03-15T07:30:12.594Z,10.40
2019-03-15T07:32:41.959Z,10.50
2019-03-15T07:35:11.334Z,10.50
2019-03-15T07:37:40.836Z,10.60
2019-03-15T07:40:10.190Z,10.60
2019-03-15T07:42:39.600Z,10.70
2019-03-15T07:45:09.194Z,10.80
2019-03-15T07:47:38.764Z,10.80
2019-03-15T07:50:09.144Z,10.90
2019-03-15T07:52:42.070Z,10.90
2019-03-15T07:55:11.563Z,11.00
2019-03-15T07:57:40.892Z,11.00
2019-03-15T08:00:10.302Z,11.20
2019-03-15T08:02:39.796Z,11.30
2019-03-15T08:05:10.805Z,11.30
2019-03-15T08:07:45.235Z,11.30
2019-03-15T08:10:11.383Z,11.30
2019-03-15T08:12:40.733Z,11.30
2019-03-15T08:15:10.384Z,11.30
2019-03-15T08:17:40.654Z,11.40
2019-03-15T08:20:10.359Z,11.40
2019-03-15T08:22:39.696Z,11.50
2019-03-15T08:25:09.744Z,11.50
2019-03-15T08:27:49.551Z,11.50
2019-03-15T08:30:18.937Z,11.60
2019-03-15T08:32:51.395Z,11.60
2019-03-15T08:35:24.216Z,11.70
2019-03-15T08:37:51.940Z,11.70
2019-03-15T08:40:21.423Z,11.90
2019-03-15T08:42:50.864Z,12.00
2019-03-15T08:45:21.392Z,12.00
2019-03-15T08:47:50.685Z,12.00
2019-03-15T08:50:20.114Z,12.10
2019-03-15T08:52:49.514Z,12.10
2019-03-15T08:55:18.871Z,12.20
2019-03-15T08:57:48.173Z,12.20
2019-03-15T09:00:17.554Z,12.20
2019-03-15T09:02:49.665Z,12.20
2019-03-15T09:05:19.208Z,12.10
2019-03-15T09:07:48.754Z,12.10
2019-03-15T09:10:23.312Z,12.20
2019-03-15T09:12:49.103Z,12.20
2019-03-15T09:15:18.455Z,12.10
2019-03-15T09:17:47.845Z,12.10
2019-03-15T09:20:17.221Z,12.20
2019-03-15T09:22:46.714Z,12.30
2019-03-15T09:25:19.953Z,12.40
2019-03-15T09:27:47.204Z,12.40
2019-03-15T09:30:24.536Z,12.50
2019-03-15T09:32:47.822Z,12.60
2019-03-15T09:35:17.222Z,12.60
2019-03-15T09:37:47.642Z,12.70
2019-03-15T09:40:18.237Z,12.70
2019-03-15T09:42:50.910Z,12.70
2019-03-15T09:45:20.218Z,12.70
2019-03-15T09:47:49.528Z,12.80
2019-03-15T09:50:34.226Z,12.70
2019-03-15T09:52:57.978Z,12.70
2019-03-15T09:55:48.428Z,12.70
2019-03-15T09:58:17.812Z,12.60
2019-03-15T10:00:48.432Z,12.60
2019-03-15T10:03:22.388Z,12.60
2019-03-15T10:05:48.830Z,12.60
2019-03-15T10:08:32.720Z,12.70
2019-03-15T10:11:03.113Z,12.80
2019-03-15T10:13:33.499Z,12.90
2019-03-15T10:16:09.185Z,12.90
2019-03-15T10:18:38.539Z,13.00
2019-03-15T10:21:13.843Z,13.10
2019-03-15T10:23:43.211Z,13.20
2019-03-15T10:26:15.047Z,13.30
2019-03-15T10:28:56.659Z,13.30
2019-03-15T10:31:26.821Z,13.30
2019-03-15T10:33:58.587Z,13.40
2019-03-15T10:36:28.245Z,13.40
2019-03-15T10:38:57.909Z,13.50
2019-03-15T10:41:27.645Z,13.50
2019-03-15T10:43:57.451Z,13.50
2019-03-15T10:46:29.219Z,13.60
2019-03-15T10:48:58.928Z,13.70
2019-03-15T10:51:29.558Z,13.80
2019-03-15T10:54:00.558Z,13.90
2019-03-15T10:56:30.221Z,14.00
2019-03-15T10:58:59.784Z,14.10
2019-03-15T11:01:29.363Z,14.00
2019-03-15T11:03:58.907Z,13.90
2019-03-15T11:06:28.708Z,13.80
2019-03-15T11:09:08.596Z,13.70
2019-03-15T11:11:38.311Z,13.70
2019-03-15T11:14:07.852Z,13.60
2019-03-15T11:16:37.336Z,13.60
2019-03-15T11:19:07.828Z,13.50
2019-03-15T11:21:39.467Z,13.40
2019-03-15T11:24:17.134Z,13.40
2019-03-15T11:26:46.777Z,13.40
2019-03-15T11:29:16.424Z,13.40
2019-03-15T11:31:47.063Z,13.50
2019-03-15T11:34:16.574Z,13.60
2019-03-15T11:36:57.805Z,13.80
2019-03-15T11:39:18.328Z,14.00
2019-03-15T11:41:52.100Z,14.20
2019-03-15T11:44:21.793Z,14.60
2019-03-15T11:46:51.338Z,14.70
2019-03-15T11:49:22.976Z,14.80
2019-03-15T11:51:54.767Z,14.80
2019-03-15T11:54:24.509Z,14.80
2019-03-15T11:56:59.369Z,14.90
2019-03-15T11:59:28.807Z,14.80
2019-03-15T12:02:04.360Z,14.70
2019-03-15T12:04:32.677Z,14.60
2019-03-15T12:07:02.319Z,14.40
2019-03-15T12:09:32.120Z,14.20
2019-03-15T12:12:01.675Z,14.20
2019-03-15T12:14:40.441Z,14.20
2019-03-15T12:17:06.253Z,14.20
2019-03-15T12:19:38.093Z,14.20
2019-03-15T12:22:19.203Z,14.40
2019-03-15T12:24:49.724Z,14.50
2019-03-15T12:27:19.049Z,14.50
2019-03-15T12:29:49.607Z,14.50
2019-03-15T12:32:20.114Z,14.40
2019-03-15T12:34:49.525Z,14.30
2019-03-15T12:37:18.847Z,14.30
2019-03-15T12:39:48.349Z,14.20
2019-03-15T12:42:42.762Z,14.20
2019-03-15T12:45:12.325Z,14.10
2019-03-15T12:47:41.680Z,13.90
2019-03-15T12:50:13.661Z,13.80
2019-03-15T12:52:48.510Z,13.70
2019-03-15T12:55:15.153Z,13.70
2019-03-15T12:57:44.593Z,13.70
2019-03-15T13:00:15.026Z,13.60
2019-03-15T13:02:45.438Z,13.40
2019-03-15T13:05:20.708Z,13.30
2019-03-15T13:07:51.175Z,13.20
2019-03-15T13:10:21.819Z,13.10
2019-03-15T13:12:51.100Z,13.10
2019-03-15T13:15:20.461Z,13.00
2019-03-15T13:17:58.186Z,13.00
2019-03-15T13:20:28.146Z,12.90
2019-03-15T13:22:57.578Z,12.90
2019-03-15T13:25:27.068Z,12.90
2019-03-15T13:27:57.516Z,13.00
2019-03-15T13:30:27.166Z,13.00
2019-03-15T13:33:19.641Z,13.10
2019-03-15T13:35:41.049Z,13.10
2019-03-15T13:38:16.616Z,13.10
2019-03-15T13:40:54.272Z,13.20
2019-03-15T13:43:23.642Z,13.10
2019-03-15T13:45:57.041Z,13.10
2019-03-15T13:48:26.406Z,13.10
2019-03-15T13:50:55.802Z,13.10
2019-03-15T13:53:25.215Z,13.00
2019-03-15T13:55:54.637Z,12.90
2019-03-15T13:58:28.038Z,12.90
2019-03-15T14:00:58.279Z,12.90
2019-03-15T14:03:27.633Z,12.90
2019-03-15T14:05:57.118Z,12.90
2019-03-15T14:08:26.707Z,12.80
2019-03-15T14:10:56.179Z,12.80
2019-03-15T14:13:26.702Z,12.70
2019-03-15T14:16:04.232Z,12.70
2019-03-15T14:18:33.811Z,12.70
2019-03-15T14:21:13.722Z,12.70
2019-03-15T14:23:52.831Z,12.70
2019-03-15T14:26:23.207Z,12.60
2019-03-15T14:28:52.707Z,12.60
2019-03-15T14:31:25.592Z,12.50
2019-03-15T14:33:53.388Z,12.50
2019-03-15T14:36:24.290Z,12.50
2019-03-15T14:38:54.982Z,12.50
2019-03-15T14:41:26.480Z,12.50
2019-03-15T14:43:57.018Z,12.50
2019-03-15T14:46:32.722Z,12.50
2019-03-15T14:49:02.853Z,12.50
2019-03-15T14:51:35.501Z,12.50
2019-03-15T14:54:06.783Z,12.40
2019-03-15T14:56:44.316Z,12.40
2019-03-15T14:59:13.718Z,12.30
2019-03-15T15:01:51.438Z,12.30
2019-03-15T15:04:20.855Z,12.30
2019-03-15T15:06:53.278Z,12.20
2019-03-15T15:09:22.302Z,12.20
2019-03-15T15:11:52.744Z,12.30
2019-03-15T15:14:22.068Z,12.30
2019-03-15T15:16:51.466Z,12.40
2019-03-15T15:19:20.858Z,12.40
2019-03-15T15:21:53.156Z,12.40
2019-03-15T15:24:26.794Z,12.40
2019-03-15T15:26:56.072Z,12.40
2019-03-15T15:29:25.366Z,12.30
2019-03-15T15:31:56.788Z,12.20
2019-03-15T15:34:26.151Z,12.10
2019-03-15T15:36:55.683Z,12.10
2019-03-15T15:39:25.069Z,12.10
2019-03-15T15:41:58.613Z,12.10
2019-03-15T15:44:28.605Z,12.10
2019-03-15T15:46:58.225Z,12.20
2019-03-15T15:49:30.543Z,12.20
2019-03-15T15:51:59.919Z,12.20
2019-03-15T15:54:29.477Z,12.20
2019-03-15T15:56:58.903Z,12.20
2019-03-15T15:59:28.293Z,12.20
2019-03-15T16:01:57.628Z,12.30
2019-03-15T16:04:27.336Z,12.30
2019-03-15T16:06:57.282Z,12.40
2019-03-15T16:09:27.105Z,12.40
2019-03-15T16:11:56.541Z,12.40
2019-03-15T16:14:25.896Z,12.50
2019-03-15T16:16:56.277Z,12.50
2019-03-15T16:19:30.929Z,12.60
2019-03-15T16:22:02.271Z,12.60
2019-03-15T16:24:32.081Z,12.60
2019-03-15T16:27:04.817Z,12.70
2019-03-15T16:29:34.196Z,12.80
2019-03-15T16:32:06.706Z,12.80
2019-03-15T16:34:38.627Z,12.80
2019-03-15T16:37:10.058Z,12.80
2019-03-15T16:39:39.480Z,12.80
2019-03-15T16:42:08.949Z,12.80
2019-03-15T16:44:38.325Z,12.80
2019-03-15T16:47:07.828Z,12.80
2019-03-15T16:49:37.286Z,12.80
2019-03-15T16:52:06.667Z,12.90
2019-03-15T16:54:37.282Z,12.90
2019-03-15T16:57:12.740Z,13.00
2019-03-15T16:59:42.057Z,13.00
2019-03-15T17:02:11.533Z,13.00
2019-03-15T17:04:41.350Z,13.00
2019-03-15T17:07:11.052Z,13.00
2019-03-15T17:09:40.582Z,13.10
2019-03-15T17:12:11.357Z,13.10
2019-03-15T17:14:40.718Z,13.20
2019-03-15T17:17:10.140Z,13.20
2019-03-15T17:19:40.830Z,13.20
2019-03-15T17:22:10.230Z,13.20
2019-03-15T17:24:39.630Z,13.30
2019-03-15T17:27:10.762Z,13.20
2019-03-15T17:29:40.132Z,13.30
2019-03-15T17:32:16.801Z,13.30
2019-03-15T17:34:46.136Z,13.30
2019-03-15T17:37:15.528Z,13.30
2019-03-15T17:39:51.997Z,13.30
2019-03-15T17:42:21.427Z,13.40
2019-03-15T17:44:52.245Z,13.40
2019-03-15T17:47:21.804Z,13.40
2019-03-15T17:49:51.152Z,13.40
2019-03-15T17:52:20.537Z,13.50
2019-03-15T17:54:50.078Z,13.50
2019-03-15T17:57:21.942Z,13.50
2019-03-15T18:00:13.460Z,13.50
2019-03-15T18:02:43.215Z,13.60
2019-03-15T18:05:12.727Z,13.60
2019-03-15T18:07:42.148Z,13.70
2019-03-15T18:10:11.814Z,13.70
2019-03-15T18:12:41.299Z,13.80
2019-03-15T18:15:11.165Z,13.80
2019-03-15T18:17:40.567Z,13.90
2019-03-15T18:20:10.579Z,13.90
2019-03-15T18:22:45.904Z,13.90
2019-03-15T18:25:15.369Z,13.80
2019-03-15T18:27:44.848Z,13.60
2019-03-15T18:30:14.470Z,13.20
2019-03-15T18:32:44.019Z,12.90
2019-03-15T18:35:13.989Z,12.50
2019-03-15T18:37:43.400Z,12.00
2019-03-15T18:40:14.044Z,11.70
2019-03-15T18:42:43.725Z,11.40
2019-03-15T18:45:13.464Z,11.10
2019-03-15T18:47:43.187Z,11.00
2019-03-15T18:50:17.660Z,10.80
2019-03-15T18:52:47.039Z,10.70
2019-03-15T18:55:19.646Z,10.60
2019-03-15T18:57:49.122Z,10.60
2019-03-15T19:00:20.044Z,10.50
2019-03-15T19:02:49.577Z,10.40
2019-03-15T19:05:18.945Z,10.40
2019-03-15T19:07:48.526Z,10.30
2019-03-15T19:10:17.849Z,10.20
2019-03-15T19:12:53.075Z,10.10
2019-03-15T19:15:22.751Z,10.10
2019-03-15T19:17:52.171Z,10.10
2019-03-15T19:20:22.128Z,10.00
2019-03-15T19:22:51.690Z,10.00
2019-03-15T19:25:21.250Z,10.00
2019-03-15T19:27:51.018Z,10.00
2019-03-15T19:30:20.584Z,10.00
2019-03-15T19:32:51.674Z,9.90
2019-03-15T19:35:21.163Z,9.90
2019-03-15T19:37:50.762Z,10.00
2019-03-15T19:40:20.909Z,10.00
2019-03-15T19:42:50.349Z,10.00
2019-03-15T19:45:19.866Z,10.10
2019-03-15T19:47:49.556Z,10.10
2019-03-15T19:50:18.964Z,10.10
2019-03-15T19:52:48.452Z,10.20
2019-03-15T19:55:21.834Z,10.20
2019-03-15T19:57:51.226Z,10.20
2019-03-15T20:00:20.804Z,10.30
2019-03-15T20:02:50.248Z,10.30
2019-03-15T20:05:21.781Z,10.30
2019-03-15T20:07:51.560Z,10.30
2019-03-15T20:10:20.970Z,10.30
2019-03-15T20:12:50.725Z,10.30
2019-03-15T20:15:20.222Z,10.30
2019-03-15T20:17:49.853Z,10.40
2019-03-15T20:20:20.569Z,10.50
2019-03-15T20:22:50.138Z,10.30
2019-03-15T20:25:19.734Z,10.10
2019-03-15T20:27:52.029Z,10.00
2019-03-15T20:30:26.172Z,10.00
2019-03-15T20:32:52.577Z,10.00
2019-03-15T20:35:22.181Z,10.00
2019-03-15T20:37:52.759Z,10.00
2019-03-15T20:40:38.153Z,10.00
2019-03-15T20:43:07.375Z,10.10
2019-03-15T20:45:50.209Z,10.10
2019-03-15T20:48:19.817Z,10.20
2019-03-15T20:50:49.897Z,10.20
2019-03-15T20:53:19.518Z,10.30
2019-03-15T20:55:50.825Z,10.30
2019-03-15T20:58:22.343Z,10.30
2019-03-15T21:00:52.607Z,10.40
2019-03-15T21:03:27.139Z,10.40
2019-03-15T21:05:59.633Z,10.40
2019-03-15T21:08:32.126Z,10.40
2019-03-15T21:11:01.596Z,10.40
2019-03-15T21:13:33.758Z,10.50
2019-03-15T21:16:02.693Z,10.50
2019-03-15T21:18:33.216Z,10.30
2019-03-15T21:21:03.793Z,10.60
2019-03-15T21:23:34.759Z,10.60
2019-03-15T21:26:06.648Z,10.60
2019-03-15T21:28:36.041Z,10.60
2019-03-15T21:31:10.200Z,10.70
2019-03-15T21:33:44.272Z,10.70
2019-03-15T21:36:24.271Z,10.70
2019-03-15T21:38:55.320Z,10.70
2019-03-15T21:41:24.792Z,10.70
2019-03-15T21:43:59.025Z,10.70
2019-03-15T21:46:32.634Z,10.70
2019-03-15T21:49:04.238Z,10.70
2019-03-15T21:51:34.864Z,10.80
2019-03-15T21:54:23.958Z,10.80
2019-03-15T21:56:53.404Z,10.80
2019-03-15T21:59:22.768Z,10.80
2019-03-15T22:01:52.149Z,10.80
2019-03-15T22:04:21.610Z,10.80
2019-03-15T22:06:50.906Z,10.80
2019-03-15T22:09:20.233Z,10.80
2019-03-15T22:11:49.666Z,10.70
2019-03-15T22:14:19.202Z,10.70
2019-03-15T22:16:48.642Z,10.70
2019-03-15T22:19:17.935Z,10.70
2019-03-15T22:21:47.405Z,10.60
2019-03-15T22:24:16.801Z,10.60
2019-03-15T22:26:46.373Z,10.50
2019-03-15T22:29:15.791Z,10.50
2019-03-15T22:31:45.299Z,10.50
2019-03-15T22:34:14.703Z,10.50
2019-03-15T22:36:43.995Z,10.50
2019-03-15T22:39:13.385Z,10.50
2019-03-15T22:41:43.291Z,10.50
2019-03-15T22:44:12.791Z,10.40
2019-03-15T22:46:42.189Z,10.40
2019-03-15T22:49:11.554Z,10.40
2019-03-15T22:51:41.041Z,10.40
2019-03-15T22:54:10.379Z,10.40
2019-03-15T22:56:39.724Z,10.50
2019-03-15T22:59:09.075Z,10.50
2019-03-15T23:01:38.428Z,10.60
2019-03-15T23:04:07.832Z,10.60
2019-03-15T23:06:37.246Z,10.50
2019-03-15T23:09:07.881Z,10.50
2019-03-15T23:11:37.174Z,10.40
2019-03-15T23:14:06.466Z,10.40
2019-03-15T23:16:35.842Z,10.30
2019-03-15T23:19:05.146Z,10.30
2019-03-15T23:21:34.551Z,10.20
2019-03-15T23:24:03.891Z,10.20
2019-03-15T23:26:33.472Z,10.10
2019-03-15T23:29:02.755Z,10.10
2019-03-15T23:31:42.883Z,10.10
2019-03-15T23:34:03.096Z,10.10
2019-03-15T23:36:32.447Z,10.00
2019-03-15T23:39:01.781Z,10.00
2019-03-15T23:41:31.203Z,9.90
2019-03-15T23:44:00.506Z,9.90
2019-03-15T23:46:29.828Z,9.90
2019-03-15T23:48:59.082Z,9.90
2019-03-15T23:51:28.330Z,9.90
2019-03-15T23:53:57.642Z,9.90
2019-03-15T23:56:26.980Z,9.90
2019-03-15T23:58:56.354Z,9.90
